createdAt,value
2023-02-19T00:01:47.828Z,5.52
2023-02-19T00:05:09.534Z,5.53
2023-02-19T00:08:32.037Z,5.51
2023-02-19T00:11:53.639Z,5.47
2023-02-19T00:15:17.025Z,5.48
2023-02-19T00:18:38.559Z,5.48
2023-02-19T00:22:00.010Z,5.44
2023-02-19T00:25:21.930Z,5.43
2023-02-19T00:28:43.745Z,5.44
2023-02-19T00:32:07.110Z,5.43
2023-02-19T00:35:28.886Z,5.36
2023-02-19T00:38:51.246Z,5.35
2023-02-19T00:42:12.692Z,5.24
2023-02-19T00:45:35.781Z,5.20
2023-02-19T00:48:59.637Z,5.12
2023-02-19T00:52:21.292Z,5.06
2023-02-19T00:55:42.640Z,4.98
2023-02-19T00:59:04.584Z,4.97
2023-02-19T01:02:26.884Z,5.04
2023-02-19T01:05:50.148Z,4.95
2023-02-19T01:09:11.712Z,4.82
2023-02-19T01:12:34.215Z,4.73
2023-02-19T01:15:56.424Z,4.72
2023-02-19T01:19:18.444Z,4.66
2023-02-19T01:22:41.708Z,4.62
2023-02-19T01:26:05.720Z,4.68
2023-02-19T01:29:27.460Z,4.58
2023-02-19T01:32:49.456Z,4.63
2023-02-19T01:36:12.862Z,4.66
2023-02-19T01:39:36.066Z,4.64
2023-02-19T01:42:57.895Z,4.60
2023-02-19T01:46:19.771Z,4.62
2023-02-19T01:49:48.886Z,4.65
2023-02-19T01:53:15.823Z,4.68
2023-02-19T01:56:42.662Z,4.70
2023-02-19T02:00:08.746Z,4.71
2023-02-19T02:03:37.976Z,4.71
2023-02-19T02:07:02.402Z,4.72
2023-02-19T02:10:23.948Z,4.73
2023-02-19T02:13:47.549Z,4.74
2023-02-19T02:17:21.012Z,4.76
2023-02-19T02:20:59.707Z,4.76
2023-02-19T02:24:42.778Z,4.75
2023-02-19T02:28:23.415Z,4.78
2023-02-19T02:31:53.553Z,4.80
2023-02-19T02:35:19.271Z,4.80
2023-02-19T02:38:44.528Z,4.81
2023-02-19T02:42:24.223Z,4.82
2023-02-19T02:45:54.777Z,4.84
2023-02-19T02:49:28.013Z,4.82
2023-02-19T02:53:11.423Z,4.82
2023-02-19T02:56:33.609Z,4.79
2023-02-19T02:59:55.529Z,4.77
2023-02-19T03:03:22.647Z,4.80
2023-02-19T03:06:48.719Z,4.81
2023-02-19T03:10:14.668Z,4.83
2023-02-19T03:13:57.087Z,4.84
2023-02-19T03:17:42.195Z,4.86
2023-02-19T03:21:05.209Z,4.87
2023-02-19T03:24:49.755Z,4.84
2023-02-19T03:28:16.149Z,4.84
2023-02-19T03:31:39.931Z,4.81
2023-02-19T03:35:04.600Z,4.80
2023-02-19T03:38:30.996Z,4.74
2023-02-19T03:42:03.144Z,4.77
2023-02-19T03:45:34.958Z,4.72
2023-02-19T03:49:00.542Z,4.71
2023-02-19T03:52:31.040Z,4.70
2023-02-19T03:56:00.490Z,4.65
2023-02-19T03:59:33.303Z,4.68
2023-02-19T04:02:59.595Z,4.59
2023-02-19T04:06:25.997Z,4.43
2023-02-19T04:09:51.068Z,4.33
2023-02-19T04:13:22.636Z,4.36
2023-02-19T04:16:51.051Z,4.32
2023-02-19T04:20:15.591Z,4.38
2023-02-19T04:23:41.518Z,4.41
2023-02-19T04:27:04.122Z,4.30
2023-02-19T04:30:26.322Z,4.31
2023-02-19T04:33:49.472Z,4.35
2023-02-19T04:37:11.444Z,4.23
2023-02-19T04:40:33.196Z,4.19
2023-02-19T04:43:55.099Z,4.29
2023-02-19T04:47:17.736Z,4.33
2023-02-19T04:50:41.304Z,4.27
2023-02-19T04:54:03.126Z,4.24
2023-02-19T04:57:25.122Z,4.26
2023-02-19T05:00:46.782Z,4.16
2023-02-19T05:04:08.666Z,4.21
2023-02-19T05:07:31.945Z,4.18
2023-02-19T05:10:53.772Z,4.20
2023-02-19T05:14:15.671Z,4.22
2023-02-19T05:17:37.809Z,4.16
2023-02-19T05:21:00.372Z,4.19
2023-02-19T05:24:24.416Z,4.20
2023-02-19T05:27:46.236Z,4.22
2023-02-19T05:31:10.104Z,4.23
2023-02-19T05:34:32.408Z,4.20
2023-02-19T05:37:53.927Z,4.17
2023-02-19T05:41:18.867Z,4.15
2023-02-19T05:44:40.236Z,4.14
2023-02-19T05:48:02.415Z,4.10
2023-02-19T05:51:26.171Z,4.09
2023-02-19T05:54:47.972Z,4.07
2023-02-19T05:58:10.713Z,4.03
2023-02-19T06:01:32.658Z,4.02
2023-02-19T06:04:53.888Z,3.99
2023-02-19T06:08:16.841Z,3.96
2023-02-19T06:11:39.217Z,3.97
2023-02-19T06:15:02.051Z,3.97
2023-02-19T06:18:23.772Z,3.96
2023-02-19T06:21:46.637Z,3.95
2023-02-19T06:25:12.543Z,3.97
2023-02-19T06:28:34.257Z,3.89
2023-02-19T06:31:57.377Z,3.90
2023-02-19T06:35:19.238Z,3.93
2023-02-19T06:38:41.207Z,3.93
2023-02-19T06:42:02.700Z,3.89
2023-02-19T06:45:24.547Z,3.89
2023-02-19T06:48:47.675Z,3.87
2023-02-19T06:52:09.252Z,3.90
2023-02-19T06:55:30.635Z,3.93
2023-02-19T06:58:52.455Z,3.91
2023-02-19T07:02:14.630Z,3.94
2023-02-19T07:05:37.528Z,3.95
2023-02-19T07:09:00.189Z,3.90
2023-02-19T07:12:21.749Z,3.93
2023-02-19T07:15:43.428Z,3.95
2023-02-19T07:19:04.931Z,3.96
2023-02-19T07:22:28.225Z,3.94
2023-02-19T07:25:49.698Z,3.94
2023-02-19T07:29:11.797Z,3.94
2023-02-19T07:32:33.292Z,3.96
2023-02-19T07:35:55.258Z,3.94
2023-02-19T07:39:18.487Z,3.97
2023-02-19T07:42:40.484Z,3.97
2023-02-19T07:46:04.565Z,3.96
2023-02-19T07:49:26.418Z,3.97
2023-02-19T07:52:47.815Z,3.94
2023-02-19T07:56:12.519Z,4.00
2023-02-19T07:59:33.939Z,3.99
2023-02-19T08:03:01.220Z,3.99
2023-02-19T08:06:22.738Z,3.98
2023-02-19T08:09:44.548Z,3.95
2023-02-19T08:13:25.623Z,3.97
2023-02-19T08:16:51.098Z,3.84
2023-02-19T08:20:12.593Z,3.95
2023-02-19T08:23:34.035Z,3.97
2023-02-19T08:26:55.932Z,3.85
2023-02-19T08:30:18.853Z,3.82
2023-02-19T08:33:40.763Z,3.88
2023-02-19T08:37:02.555Z,3.81
2023-02-19T08:40:24.519Z,3.69
2023-02-19T08:43:46.248Z,3.74
2023-02-19T08:47:09.553Z,3.86
2023-02-19T08:50:31.260Z,3.84
2023-02-19T08:53:52.848Z,3.89
2023-02-19T08:57:14.602Z,4.00
2023-02-19T09:00:35.883Z,4.02
2023-02-19T09:03:59.009Z,3.97
2023-02-19T09:07:21.945Z,4.05
2023-02-19T09:10:44.064Z,4.11
2023-02-19T09:14:07.520Z,4.15
2023-02-19T09:17:29.298Z,4.07
2023-02-19T09:20:52.422Z,4.05
2023-02-19T09:24:13.823Z,4.14
2023-02-19T09:27:35.176Z,4.21
2023-02-19T09:30:57.059Z,4.27
2023-02-19T09:34:18.920Z,4.27
2023-02-19T09:37:42.075Z,4.33
2023-02-19T09:41:09.505Z,4.37
2023-02-19T09:44:35.207Z,4.37
2023-02-19T09:47:59.250Z,4.50
2023-02-19T09:51:21.008Z,4.38
2023-02-19T09:54:45.008Z,4.34
2023-02-19T09:58:18.108Z,4.37
2023-02-19T10:01:40.738Z,4.41
2023-02-19T10:05:04.409Z,4.55
2023-02-19T10:08:26.221Z,4.66
2023-02-19T10:11:50.578Z,4.80
2023-02-19T10:15:17.819Z,4.83
2023-02-19T10:18:42.304Z,4.77
2023-02-19T10:22:05.528Z,4.80
2023-02-19T10:25:27.658Z,4.84
2023-02-19T10:28:51.396Z,4.89
2023-02-19T10:32:20.977Z,4.80
2023-02-19T10:35:54.593Z,4.83
2023-02-19T10:39:37.740Z,4.93
2023-02-19T10:43:03.662Z,5.09
2023-02-19T10:46:30.154Z,5.13
2023-02-19T10:49:53.445Z,5.13
2023-02-19T10:53:23.396Z,5.12
2023-02-19T10:56:45.260Z,5.19
2023-02-19T11:00:24.198Z,5.21
2023-02-19T11:03:47.771Z,5.27
2023-02-19T11:07:11.743Z,5.30
2023-02-19T11:10:42.287Z,5.26
2023-02-19T11:14:07.272Z,5.25
2023-02-19T11:17:31.227Z,5.25
2023-02-19T11:20:57.145Z,5.28
2023-02-19T11:24:25.713Z,5.34
2023-02-19T11:27:55.790Z,5.33
2023-02-19T11:31:25.352Z,5.42
2023-02-19T11:34:48.226Z,5.32
2023-02-19T11:38:13.474Z,5.30
2023-02-19T11:42:05.118Z,5.31
2023-02-19T11:45:35.908Z,5.39
2023-02-19T11:49:12.320Z,5.43
2023-02-19T11:52:39.939Z,5.47
2023-02-19T11:56:16.647Z,5.57
2023-02-19T11:59:48.334Z,5.69
2023-02-19T12:03:35.779Z,5.75
2023-02-19T12:07:12.006Z,5.83
2023-02-19T12:10:43.584Z,5.90
2023-02-19T12:14:26.328Z,5.91
2023-02-19T12:18:07.200Z,5.94
2023-02-19T12:21:45.192Z,5.91
2023-02-19T12:25:23.772Z,5.94
2023-02-19T12:29:03.326Z,5.92
2023-02-19T12:32:51.209Z,5.82
2023-02-19T12:36:23.028Z,5.90
2023-02-19T12:39:53.610Z,5.95
2023-02-19T12:43:18.549Z,6.05
2023-02-19T12:46:42.547Z,6.00
2023-02-19T12:50:15.599Z,6.07
2023-02-19T12:53:42.817Z,6.12
2023-02-19T12:57:07.777Z,6.17
2023-02-19T13:00:34.600Z,6.12
2023-02-19T13:04:15.697Z,6.10
2023-02-19T13:07:46.052Z,6.21
2023-02-19T13:11:11.963Z,6.08
2023-02-19T13:14:38.355Z,6.15
2023-02-19T13:18:01.678Z,6.18
2023-02-19T13:21:45.537Z,6.16
2023-02-19T13:25:11.364Z,6.15
2023-02-19T13:28:51.156Z,6.16
2023-02-19T13:32:36.030Z,6.17
2023-02-19T13:36:13.366Z,6.12
2023-02-19T13:39:35.342Z,6.02
2023-02-19T13:43:00.636Z,6.01
2023-02-19T13:46:22.749Z,6.09
2023-02-19T13:49:50.251Z,6.12
2023-02-19T13:53:54.710Z,6.17
2023-02-19T13:57:29.858Z,6.19
2023-02-19T14:00:54.068Z,6.21
2023-02-19T14:04:21.712Z,6.25
2023-02-19T14:07:54.379Z,6.27
2023-02-19T14:11:16.199Z,6.30
2023-02-19T14:14:39.477Z,6.31
2023-02-19T14:18:02.859Z,6.34
2023-02-19T14:21:35.167Z,6.36
2023-02-19T14:24:58.753Z,6.34
2023-02-19T14:28:27.520Z,6.12
2023-02-19T14:31:49.165Z,6.07
2023-02-19T14:35:21.394Z,6.16
2023-02-19T14:38:47.248Z,6.21
2023-02-19T14:42:15.160Z,6.20
2023-02-19T14:45:44.314Z,6.18
2023-02-19T14:49:14.036Z,6.17
2023-02-19T14:52:43.524Z,6.12
2023-02-19T14:56:06.842Z,6.26
2023-02-19T14:59:30.158Z,6.26
2023-02-19T15:02:53.468Z,6.15
2023-02-19T15:06:20.211Z,6.09
2023-02-19T15:09:48.365Z,6.15
2023-02-19T15:13:17.417Z,6.22
2023-02-19T15:16:39.211Z,6.29
2023-02-19T15:20:05.729Z,6.29
2023-02-19T15:23:30.430Z,6.31
2023-02-19T15:26:55.994Z,6.23
2023-02-19T15:30:24.116Z,6.31
2023-02-19T15:33:53.148Z,6.33
2023-02-19T15:37:15.553Z,6.33
2023-02-19T15:40:38.027Z,6.23
2023-02-19T15:44:13.211Z,6.15
2023-02-19T15:47:41.235Z,6.20
2023-02-19T15:51:09.469Z,6.17
2023-02-19T15:54:39.195Z,6.19
2023-02-19T15:58:08.641Z,6.26
2023-02-19T16:01:34.364Z,6.29
2023-02-19T16:04:55.871Z,6.24
2023-02-19T16:08:20.239Z,6.22
2023-02-19T16:11:51.314Z,6.21
2023-02-19T16:15:14.758Z,6.10
2023-02-19T16:18:37.747Z,6.12
2023-02-19T16:21:59.786Z,6.15
2023-02-19T16:25:30.537Z,6.17
2023-02-19T16:28:53.847Z,6.19
2023-02-19T16:32:18.260Z,6.21
2023-02-19T16:35:41.602Z,6.18
2023-02-19T16:39:25.941Z,6.14
2023-02-19T16:43:29.349Z,6.08
2023-02-19T16:46:54.579Z,5.99
2023-02-19T16:50:18.503Z,5.93
2023-02-19T16:53:40.340Z,5.86
2023-02-19T16:57:02.206Z,5.78
2023-02-19T17:00:25.644Z,5.71
2023-02-19T17:03:49.508Z,5.65
2023-02-19T17:07:15.055Z,5.60
2023-02-19T17:10:36.826Z,5.52
2023-02-19T17:13:58.220Z,5.43
2023-02-19T17:17:20.101Z,5.38
2023-02-19T17:20:49.111Z,5.28
2023-02-19T17:24:11.076Z,5.19
2023-02-19T17:27:33.285Z,5.13
2023-02-19T17:30:55.172Z,5.06
2023-02-19T17:34:16.973Z,5.00
2023-02-19T17:37:40.397Z,4.92
2023-02-19T17:41:02.084Z,4.84
2023-02-19T17:44:23.400Z,4.77
2023-02-19T17:47:45.465Z,4.71
2023-02-19T17:51:07.178Z,4.64
2023-02-19T17:54:30.100Z,4.58
2023-02-19T17:57:53.095Z,4.52
2023-02-19T18:01:15.644Z,4.45
2023-02-19T18:04:38.467Z,4.40
2023-02-19T18:08:01.482Z,4.34
2023-02-19T18:11:25.267Z,4.28
2023-02-19T18:14:47.490Z,4.24
2023-02-19T18:18:09.817Z,4.17
2023-02-19T18:21:31.264Z,4.13
2023-02-19T18:24:54.245Z,4.09
2023-02-19T18:28:17.242Z,4.03
2023-02-19T18:31:38.954Z,4.00
2023-02-19T18:35:01.149Z,3.95
2023-02-19T18:38:22.900Z,3.91
2023-02-19T18:41:48.451Z,3.87
2023-02-19T18:45:11.765Z,3.85
2023-02-19T18:48:32.970Z,3.81
2023-02-19T18:51:55.199Z,3.78
2023-02-19T18:55:16.958Z,3.79
2023-02-19T18:58:38.502Z,3.76
2023-02-19T19:02:02.703Z,3.70
2023-02-19T19:05:25.238Z,3.68
2023-02-19T19:08:47.065Z,3.65
2023-02-19T19:12:08.880Z,3.64
2023-02-19T19:15:30.550Z,3.60
2023-02-19T19:18:54.303Z,3.59
2023-02-19T19:22:16.627Z,3.58
2023-02-19T19:25:38.700Z,3.54
2023-02-19T19:29:00.126Z,3.51
2023-02-19T19:32:21.982Z,3.47
2023-02-19T19:35:44.999Z,3.46
2023-02-19T19:39:06.419Z,3.44
2023-02-19T19:42:27.725Z,3.40
2023-02-19T19:45:50.443Z,3.40
2023-02-19T19:49:12.372Z,3.39
2023-02-19T19:52:35.520Z,3.37
2023-02-19T19:55:57.390Z,3.38
2023-02-19T19:59:19.201Z,3.35
2023-02-19T20:02:41.282Z,3.36
2023-02-19T20:06:03.334Z,3.35
2023-02-19T20:09:29.078Z,3.35
2023-02-19T20:12:50.801Z,3.33
2023-02-19T20:16:14.472Z,3.31
2023-02-19T20:19:36.228Z,3.30
2023-02-19T20:22:58.235Z,3.30
2023-02-19T20:26:26.613Z,3.30
2023-02-19T20:29:48.287Z,3.30
2023-02-19T20:33:10.299Z,3.30
2023-02-19T20:36:32.745Z,3.30
2023-02-19T20:39:54.456Z,3.30
2023-02-19T20:43:17.727Z,3.28
2023-02-19T20:46:42.844Z,3.29
2023-02-19T20:50:04.872Z,3.29
2023-02-19T20:53:26.311Z,3.28
2023-02-19T20:56:50.114Z,3.28
2023-02-19T21:00:15.575Z,3.26
2023-02-19T21:03:37.416Z,3.27
2023-02-19T21:06:59.174Z,3.27
2023-02-19T21:10:20.629Z,3.26
2023-02-19T21:13:43.533Z,3.26
2023-02-19T21:17:06.808Z,3.26
2023-02-19T21:20:28.821Z,3.26
2023-02-19T21:23:50.533Z,3.23
2023-02-19T21:27:12.323Z,3.23
2023-02-19T21:30:34.247Z,3.24
2023-02-19T21:33:57.411Z,3.27
2023-02-19T21:37:18.982Z,3.29
2023-02-19T21:40:40.840Z,3.29
2023-02-19T21:44:02.753Z,3.28
2023-02-19T21:47:24.786Z,3.30
2023-02-19T21:50:48.568Z,3.29
2023-02-19T21:54:15.444Z,3.32
2023-02-19T21:57:36.860Z,3.33
2023-02-19T22:00:58.809Z,3.38
2023-02-19T22:04:24.498Z,3.42
2023-02-19T22:07:48.414Z,3.44
2023-02-19T22:11:09.942Z,3.48
2023-02-19T22:14:31.369Z,3.53
2023-02-19T22:17:53.184Z,3.55
2023-02-19T22:21:15.292Z,3.60
2023-02-19T22:24:38.441Z,3.64
2023-02-19T22:28:00.251Z,3.68
2023-02-19T22:31:24.350Z,3.68
2023-02-19T22:34:46.116Z,3.70
2023-02-19T22:38:07.633Z,3.70
2023-02-19T22:41:31.386Z,3.72
2023-02-19T22:44:53.408Z,3.74
2023-02-19T22:48:25.159Z,3.74
2023-02-19T22:51:56.328Z,3.72
2023-02-19T22:55:18.948Z,3.68
2023-02-19T22:58:41.980Z,3.67
2023-02-19T23:02:03.626Z,3.68
2023-02-19T23:05:25.554Z,3.68
2023-02-19T23:08:47.704Z,3.66
2023-02-19T23:12:11.600Z,3.68
2023-02-19T23:15:34.945Z,3.70
2023-02-19T23:18:56.703Z,3.70
2023-02-19T23:22:18.222Z,3.70
2023-02-19T23:25:39.958Z,3.72
2023-02-19T23:29:01.791Z,3.73
2023-02-19T23:32:24.526Z,3.75
2023-02-19T23:35:45.784Z,3.76
2023-02-19T23:39:07.607Z,3.79
2023-02-19T23:42:29.735Z,3.79
2023-02-19T23:45:51.807Z,3.83
2023-02-19T23:49:15.135Z,3.87
2023-02-19T23:52:36.714Z,3.91
2023-02-19T23:55:58.816Z,3.93
2023-02-19T23:59:20.379Z,3.96
